Bellvue, Colorado
Current Conditions -  °F | °C
As of 7:35 PM on Wednesday 17 Dec 2014 (Local Time) from KFNL Reporting Station
Clear Clear  
Wind Chill: 30°   Ceiling: Unl
Heat Index: 30°   Visibility: 10mi
Dew Point: 21°   Wind: 0mph
Humidity: 69%   Direction: NA
Pressure: 29.97"   Gusts: NA
Location:  40.63°N, 105.17°W
Report Text: KFNL 180235Z AUTO 00000KT 10SM CLR M01/M06 A2997 RMK AO1
Loading
Personal Weather Stations






























Interactive Weather Map New forecast layout! Learn more

10-Day Weather Forecast

Advertisements
Track Severe Weather on mobile